Time;durP1;ratioP1;P1;durP2;ratioP2;P2;SDS_P1;SDS_P2;PMS_P1;PMS_P2;Temp;Humidity;BMP_temperature;BMP_pressure;BME280_temperature;BME280_humidity;BME280_pressure;Samples;Min_cycle;Max_cycle;Signal;HPM_P1;HPM_P2
2021/11/12 00:14:08;;;;;;;21.33;17.03;;;6.80;99.90;;;;;;5012391;28;20339;-53
2021/11/12 00:16:35;;;;;;;22.50;17.50;;;6.70;99.90;;;;;;5013608;28;20177;-52
2021/11/12 00:19:02;;;;;;;22.63;17.57;;;6.60;99.90;;;;;;5012992;28;20547;-55
2021/11/12 00:21:27;;;;;;;22.37;17.50;;;6.70;99.90;;;;;;5007419;28;20632;-54
2021/11/12 00:23:53;;;;;;;25.23;18.53;;;6.70;99.90;;;;;;4992232;28;20201;-57
2021/11/12 00:26:20;;;;;;;21.10;16.93;;;7.60;99.90;;;;;;5008058;28;20643;-55
2021/11/12 00:28:55;;;;;;;22.43;17.70;;;6.80;99.90;;;;;;5013237;28;20180;-51
2021/11/12 00:34:18;;;;;;;21.80;16.93;;;7.00;99.90;;;;;;5012769;28;20200;-53
2021/11/12 00:36:59;;;;;;;22.27;16.63;;;7.00;99.90;;;;;;5012765;28;20207;-50
2021/11/12 00:39:31;;;;;;;25.63;19.03;;;7.10;99.90;;;;;;5012066;28;20168;-52
2021/11/12 00:42:11;;;;;;;22.13;16.50;;;7.10;99.90;;;;;;5012312;28;20195;-58
2021/11/12 00:44:41;;;;;;;22.30;16.30;;;7.00;99.90;;;;;;5013255;28;20231;-49
2021/11/12 00:49:57;;;;;;;24.33;17.40;;;7.20;99.90;;;;;;5013429;28;20177;-51
2021/11/12 00:52:40;;;;;;;23.07;17.07;;;7.30;99.90;;;;;;5012514;28;20763;-54
2021/11/12 00:55:07;;;;;;;22.03;17.10;;;7.30;99.90;;;;;;5012639;28;20212;-51
2021/11/12 00:57:33;;;;;;;24.13;17.83;;;7.20;99.90;;;;;;5012819;28;20559;-59
2021/11/12 00:59:58;;;;;;;25.60;18.40;;;7.10;99.90;;;;;;5012498;28;20169;-51
2021/11/12 01:02:26;;;;;;;23.73;17.40;;;7.10;99.90;;;;;;5012429;28;20171;-51
2021/11/12 01:04:52;;;;;;;23.37;17.70;;;7.10;99.90;;;;;;5011812;28;20196;-50
2021/11/12 01:07:18;;;;;;;24.07;17.87;;;7.00;99.90;;;;;;5012697;28;20176;-54
2021/11/12 01:09:43;;;;;;;23.57;17.03;;;7.00;99.90;;;;;;5012285;28;20553;-52
2021/11/12 01:12:09;;;;;;;25.33;17.50;;;7.00;99.90;;;;;;4998371;28;20184;-55
2021/11/12 01:14:36;;;;;;;22.83;17.13;;;7.10;99.90;;;;;;4994587;28;20212;-53
2021/11/12 01:17:01;;;;;;;23.37;17.40;;;7.10;99.90;;;;;;4992651;28;20170;-53
2021/11/12 01:19:27;;;;;;;22.73;17.27;;;7.10;99.90;;;;;;4993847;28;20252;-53
2021/11/12 01:21:52;;;;;;;23.23;17.00;;;7.10;99.90;;;;;;4991767;28;20169;-53
2021/11/12 01:24:18;;;;;;;22.87;16.87;;;7.10;99.90;;;;;;5025579;23;21067;-58
2021/11/12 01:26:44;;;;;;;24.87;17.70;;;7.10;99.90;;;;;;5011720;28;20679;-59
2021/11/12 01:29:10;;;;;;;22.23;16.80;;;7.10;99.90;;;;;;5013296;28;20578;-60
2021/11/12 01:31:36;;;;;;;22.73;16.17;;;7.20;99.90;;;;;;5011509;28;20169;-59
2021/11/12 01:34:07;;;;;;;21.50;15.80;;;7.10;99.90;;;;;;5011064;28;20206;-59
2021/11/12 01:36:40;;;;;;;22.10;16.50;;;7.00;99.90;;;;;;5011872;28;20179;-58
2021/11/12 01:39:10;;;;;;;24.13;17.27;;;7.10;99.90;;;;;;5011369;28;20188;-60
2021/11/12 01:41:39;;;;;;;24.03;16.83;;;6.90;99.90;;;;;;5011724;28;20181;-59
2021/11/12 01:44:08;;;;;;;24.07;16.53;;;7.00;99.90;;;;;;5011386;28;20230;-60
2021/11/12 01:46:47;;;;;;;22.97;15.77;;;7.00;99.90;;;;;;5011885;28;20176;-58
2021/11/12 01:52:33;;;;;;;23.47;16.27;;;6.90;99.90;;;;;;5011937;28;20223;-59
2021/11/12 01:59:55;;;;;;;28.80;18.27;;;7.00;99.90;;;;;;5010419;28;20654;-59
2021/11/12 02:02:20;;;;;;;23.07;16.83;;;7.10;99.90;;;;;;5009772;28;20192;-58
2021/11/12 02:04:46;;;;;;;21.53;16.03;;;7.20;99.90;;;;;;5011169;28;20686;-57
2021/11/12 02:07:12;;;;;;;24.17;16.63;;;7.20;99.90;;;;;;5011154;28;20181;-59
2021/11/12 02:09:38;;;;;;;23.23;17.50;;;7.20;99.90;;;;;;5011280;28;20176;-54
2021/11/12 02:12:31;;;;;;;25.13;16.97;;;7.20;99.90;;;;;;5010901;28;20188;-60
2021/11/12 02:14:58;;;;;;;22.87;16.27;;;7.30;99.90;;;;;;5011052;28;20204;-56
2021/11/12 02:17:28;;;;;;;22.40;16.40;;;7.30;99.90;;;;;;5011088;28;20168;-57
2021/11/12 02:20:00;;;;;;;22.33;16.17;;;7.20;99.90;;;;;;5011213;28;20192;-55
2021/11/12 02:22:31;;;;;;;20.20;15.73;;;7.20;99.90;;;;;;5010811;28;20674;-55
2021/11/12 02:25:09;;;;;;;22.13;16.63;;;7.20;99.90;;;;;;5011079;28;20718;-54
2021/11/12 02:27:58;;;;;;;22.27;15.77;;;7.30;99.90;;;;;;5010887;28;20795;-54
2021/11/12 02:30:24;;;;;;;20.67;15.37;;;7.30;99.90;;;;;;5011031;28;20860;-57
2021/11/12 02:33:21;;;;;;;24.00;16.70;;;7.40;99.90;;;;;;5011335;28;20191;-58
2021/11/12 02:36:12;;;;;;;20.40;15.50;;;7.30;99.90;;;;;;4950479;29;20214;-56
2021/11/12 02:38:40;;;;;;;21.07;15.40;;;7.20;99.90;;;;;;4950369;29;20262;-56
2021/11/12 02:41:06;;;;;;;20.87;15.40;;;7.20;99.90;;;;;;4950644;29;20174;-57
2021/11/12 02:43:37;;;;;;;19.47;14.93;;;9.10;99.90;;;;;;4949850;29;20257;-58
2021/11/12 02:46:05;;;;;;;24.27;16.47;;;7.00;99.90;;;;;;4950129;28;20254;-58
2021/11/12 02:48:35;;;;;;;20.83;16.10;;;6.90;99.90;;;;;;4949288;28;20190;-56
2021/11/12 02:51:07;;;;;;;21.77;15.73;;;7.00;99.90;;;;;;4947191;28;20193;-59
2021/11/12 02:53:33;;;;;;;21.57;15.30;;;7.00;99.90;;;;;;4950240;28;20230;-58
2021/11/12 02:56:03;;;;;;;22.23;16.50;;;7.10;99.90;;;;;;4949819;29;20205;-55
2021/11/12 02:58:30;;;;;;;23.20;15.97;;;7.20;99.90;;;;;;4950677;28;20194;-58
2021/11/12 03:00:57;;;;;;;21.47;15.40;;;7.20;99.90;;;;;;4949934;29;20175;-58
2021/11/12 03:03:22;;;;;;;21.67;15.53;;;7.20;99.90;;;;;;4949964;29;20181;-58
2021/11/12 03:05:48;;;;;;;21.00;14.80;;;7.20;99.90;;;;;;4949990;28;20645;-58
2021/11/12 03:08:14;;;;;;;19.73;14.83;;;7.10;99.90;;;;;;4950212;29;20292;-60
2021/11/12 03:10:39;;;;;;;42.90;17.30;;;7.10;99.90;;;;;;4950155;29;20549;-58
2021/11/12 03:13:06;;;;;;;19.77;14.50;;;7.10;99.90;;;;;;5004091;28;20267;-59
2021/11/12 03:15:33;;;;;;;18.70;14.20;;;7.10;99.90;;;;;;5010855;28;20192;-58
2021/11/12 03:17:59;;;;;;;19.83;14.80;;;7.10;99.90;;;;;;5010540;28;20172;-56
2021/11/12 03:20:26;;;;;;;20.10;14.53;;;7.20;99.90;;;;;;5010679;28;20176;-58
2021/11/12 03:22:59;;;;;;;19.47;14.87;;;7.20;99.90;;;;;;5010679;28;20191;-58
2021/11/12 04:03:17;;;;;;;16.87;13.20;;;6.60;99.90;;;;;;5013402;28;20176;-56
2021/11/12 04:22:22;;;;;;;18.50;13.67;;;7.00;99.90;;;;;;5013516;28;20168;-56
2021/11/12 05:03:16;;;;;;;18.00;13.50;;;6.50;99.90;;;;;;5012437;28;20187;-60
2021/11/12 05:11:19;;;;;;;13.53;10.60;;;6.60;99.90;;;;;;5012532;28;20165;-55
2021/11/12 05:44:02;;;;;;;12.90;11.50;;;6.90;99.90;;;;;;5011695;28;20183;-52
2021/11/12 05:57:11;;;;;;;12.57;10.60;;;7.10;99.90;;;;;;5011827;28;20547;-58
2021/11/12 05:59:37;;;;;;;16.40;13.17;;;6.90;99.90;;;;;;5001378;28;20169;-58
2021/11/12 06:02:06;;;;;;;13.63;11.53;;;6.80;99.90;;;;;;5026177;28;20211;-58
2021/11/12 06:04:33;;;;;;;12.57;10.53;;;6.80;99.90;;;;;;5026568;28;20192;-57
2021/11/12 06:06:59;;;;;;;11.80;9.83;;;6.90;99.90;;;;;;5010934;28;20264;-55
2021/11/12 06:09:25;;;;;;;12.73;10.53;;;6.90;99.90;;;;;;5011792;28;20176;-58
2021/11/12 06:11:54;;;;;;;13.37;10.33;;;7.00;99.90;;;;;;5011311;28;20335;-52
2021/11/12 06:14:24;;;;;;;14.90;12.07;;;7.10;99.90;;;;;;5010845;28;20292;-56
2021/11/12 06:16:51;;;;;;;14.13;10.97;;;7.10;99.90;;;;;;5011524;28;20215;-55
2021/11/12 06:19:17;;;;;;;16.17;12.17;;;7.10;99.90;;;;;;5010630;28;20599;-59
2021/11/12 06:21:46;;;;;;;13.03;11.03;;;7.10;99.90;;;;;;5010615;28;20188;-57
2021/11/12 06:24:12;;;;;;;14.03;11.67;;;7.10;99.90;;;;;;5007188;28;20556;-57
2021/11/12 06:26:39;;;;;;;14.40;11.27;;;7.10;99.90;;;;;;5008047;28;20173;-57
2021/11/12 06:29:06;;;;;;;14.60;11.23;;;7.10;99.90;;;;;;5027328;28;20180;-56
2021/11/12 06:31:32;;;;;;;12.97;10.87;;;7.00;99.90;;;;;;5026127;28;20596;-53
2021/11/12 06:33:58;;;;;;;13.27;10.83;;;6.90;99.90;;;;;;5031595;28;20298;-59
2021/11/12 06:36:25;;;;;;;14.23;10.93;;;6.80;99.90;;;;;;5031359;28;20172;-54
2021/11/12 06:38:52;;;;;;;14.30;11.20;;;6.90;99.90;;;;;;5023522;28;20175;-58
2021/11/12 06:41:37;;;;;;;13.47;11.20;;;6.80;99.90;;;;;;5011239;28;20164;-58
2021/11/12 06:49:34;;;;;;;13.40;10.53;;;6.80;99.90;;;;;;5002654;28;20175;-54
2021/11/12 06:52:00;;;;;;;13.97;10.73;;;6.90;99.90;;;;;;5011288;28;20172;-58
2021/11/12 06:54:27;;;;;;;12.67;10.27;;;6.90;99.90;;;;;;5011881;28;20212;-58
2021/11/12 06:56:53;;;;;;;11.50;9.73;;;7.00;99.90;;;;;;5012071;28;20173;-58
2021/11/12 06:59:18;;;;;;;11.40;9.13;;;7.00;99.90;;;;;;5011884;28;20300;-59
2021/11/12 07:01:44;;;;;;;12.60;9.80;;;7.10;99.90;;;;;;5008698;28;20176;-58
2021/11/12 07:04:09;;;;;;;11.33;9.23;;;7.10;99.90;;;;;;5011802;28;20180;-56
2021/11/12 07:06:36;;;;;;;10.93;9.27;;;7.00;99.90;;;;;;5011821;28;20279;-57
2021/11/12 07:09:04;;;;;;;9.53;8.17;;;7.10;99.90;;;;;;5012305;28;20216;-59
2021/11/12 07:11:29;;;;;;;10.77;8.73;;;7.10;99.90;;;;;;5012419;28;20239;-58
2021/11/12 07:13:55;;;;;;;11.87;9.63;;;7.10;99.90;;;;;;5011277;28;20246;-56
2021/11/12 07:16:21;;;;;;;12.27;9.37;;;7.30;99.90;;;;;;5009753;28;20184;-56
2021/11/12 07:18:47;;;;;;;12.70;10.03;;;7.20;99.90;;;;;;5025664;28;20260;-56
2021/11/12 07:21:13;;;;;;;10.87;8.93;;;7.20;99.90;;;;;;5009798;28;20176;-55
2021/11/12 07:23:38;;;;;;;16.10;8.77;;;7.30;99.90;;;;;;5009461;28;20549;-55
2021/11/12 07:26:04;;;;;;;9.77;8.73;;;7.10;99.90;;;;;;5011180;28;20667;-57
2021/11/12 07:28:30;;;;;;;11.53;8.43;;;6.90;99.90;;;;;;5011560;28;20231;-55
2021/11/12 07:30:56;;;;;;;10.97;8.87;;;6.80;99.90;;;;;;5011487;28;20177;-59
2021/11/12 07:33:22;;;;;;;9.43;8.43;;;6.70;99.90;;;;;;5010562;28;20659;-57
2021/11/12 07:36:09;;;;;;;11.50;9.33;;;6.60;99.90;;;;;;5014088;28;20203;-57
2021/11/12 07:38:45;;;;;;;10.27;8.50;;;6.60;99.90;;;;;;5014749;28;20239;-56
2021/11/12 07:47:02;;;;;;;10.40;8.97;;;6.60;99.90;;;;;;5010474;28;20195;-59
2021/11/12 07:49:28;;;;;;;9.63;8.13;;;6.60;99.90;;;;;;5014187;28;20157;-57
2021/11/12 07:51:55;;;;;;;10.60;8.17;;;6.50;99.90;;;;;;5013417;28;20199;-57
2021/11/12 07:54:20;;;;;;;11.00;8.70;;;6.50;99.90;;;;;;5013319;28;20581;-59
2021/11/12 07:56:46;;;;;;;11.00;8.73;;;6.50;99.90;;;;;;5012459;28;20310;-57
2021/11/12 07:59:12;;;;;;;10.73;8.97;;;6.60;99.90;;;;;;5013522;28;20612;-56
2021/11/12 08:01:38;;;;;;;11.10;8.97;;;6.80;99.90;;;;;;5012468;28;20188;-57
2021/11/12 08:04:05;;;;;;;10.10;8.43;;;6.90;99.90;;;;;;5009943;28;20259;-56
2021/11/12 08:06:32;;;;;;;11.60;9.10;;;7.00;99.90;;;;;;5011862;28;20230;-58
2021/11/12 08:09:11;;;;;;;9.93;8.73;;;7.10;99.90;;;;;;5012995;28;20708;-55
2021/11/12 08:11:51;;;;;;;10.60;9.10;;;7.10;99.90;;;;;;5013306;28;20231;-58
2021/11/12 08:17:00;;;;;;;11.03;9.07;;;7.00;99.90;;;;;;5013484;28;20604;-56
2021/11/12 08:19:40;;;;;;;9.67;8.40;;;7.10;99.90;;;;;;5012564;28;20177;-58
2021/11/12 08:22:12;;;;;;;11.17;9.43;;;6.90;99.90;;;;;;5013025;28;20659;-55
2021/11/12 08:35:02;;;;;;;9.57;8.57;;;6.20;99.90;;;;;;5010854;28;20204;-60
2021/11/12 08:37:43;;;;;;;38.50;11.00;;;6.30;99.90;;;;;;5014233;28;20222;-56
2021/11/12 08:43:24;;;;;;;14.30;9.57;;;6.10;99.90;;;;;;5015844;28;20173;-55
2021/11/12 08:48:02;;;;;;;13.10;9.77;;;5.70;99.90;;;;;;5018336;28;20962;-57
2021/11/12 08:50:28;;;;;;;16.00;10.77;;;5.60;99.90;;;;;;5024686;28;20171;-55
2021/11/12 08:53:04;;;;;;;12.37;9.40;;;5.50;99.90;;;;;;5031614;28;20885;-53
2021/11/12 08:55:31;;;;;;;10.17;8.80;;;5.40;99.90;;;;;;4993537;28;20212;-57
2021/11/12 08:57:58;;;;;;;11.80;9.20;;;5.40;99.90;;;;;;4995783;28;20173;-57
2021/11/12 09:00:24;;;;;;;10.53;8.67;;;5.60;99.90;;;;;;4995864;28;20200;-56
2021/11/12 09:02:51;;;;;;;18.80;10.20;;;5.80;99.90;;;;;;4992761;28;20193;-58
2021/11/12 09:05:18;;;;;;;10.13;8.90;;;6.70;99.90;;;;;;4992752;28;20204;-57
2021/11/12 09:07:47;;;;;;;10.47;9.03;;;5.90;99.90;;;;;;4993404;28;20189;-59
2021/11/12 09:10:13;;;;;;;11.73;9.80;;;6.10;99.90;;;;;;4995000;28;20185;-55
2021/11/12 09:12:40;;;;;;;14.87;13.20;;;6.30;99.90;;;;;;5008815;28;20179;-55
2021/11/12 09:15:13;;;;;;;12.03;10.10;;;6.30;99.90;;;;;;5036679;28;20238;-56
2021/11/12 09:17:46;;;;;;;11.17;9.20;;;6.30;99.90;;;;;;5025826;28;20188;-56
2021/11/12 09:20:12;;;;;;;9.60;8.50;;;6.20;99.90;;;;;;5018338;28;20181;-59
2021/11/12 09:22:38;;;;;;;9.13;7.87;;;5.90;99.90;;;;;;5019705;28;20173;-58
2021/11/12 09:25:04;;;;;;;10.50;8.57;;;5.90;99.90;;;;;;5012412;28;20208;-54
2021/11/12 09:27:30;;;;;;;9.03;8.13;;;6.10;99.90;;;;;;5014359;28;20188;-54
2021/11/12 09:29:56;;;;;;;9.77;8.37;;;6.30;99.90;;;;;;5015464;28;20180;-54
2021/11/12 09:32:23;;;;;;;9.13;8.13;;;6.30;99.90;;;;;;5012737;28;20161;-59
2021/11/12 09:34:48;;;;;;;10.63;8.37;;;6.30;99.90;;;;;;5011955;28;20207;-55
2021/11/12 09:37:21;;;;;;;9.97;8.50;;;6.40;99.90;;;;;;5011396;28;20177;-57
2021/11/12 09:39:53;;;;;;;11.07;8.53;;;6.50;99.90;;;;;;5011712;28;20259;-58
2021/11/12 09:42:20;;;;;;;9.33;8.07;;;6.70;99.90;;;;;;5009274;28;20169;-57
2021/11/12 09:44:46;;;;;;;9.70;8.60;;;6.80;99.90;;;;;;5011737;28;20200;-57
2021/11/12 09:47:12;;;;;;;9.70;8.10;;;6.70;99.90;;;;;;5011397;28;20195;-58
2021/11/12 09:49:38;;;;;;;9.23;8.20;;;6.80;99.90;;;;;;5010391;28;20180;-57
2021/11/12 09:52:06;;;;;;;11.80;9.33;;;7.00;99.90;;;;;;5010659;28;20188;-58
2021/11/12 09:54:32;;;;;;;9.80;8.63;;;6.90;99.90;;;;;;5011803;28;20776;-58
2021/11/12 09:56:57;;;;;;;9.23;8.20;;;6.80;99.90;;;;;;5011896;28;20181;-59
2021/11/12 09:59:23;;;;;;;11.70;8.40;;;6.90;99.90;;;;;;5011439;28;20184;-57
2021/11/12 10:01:49;;;;;;;11.67;10.23;;;6.90;99.90;;;;;;5011886;28;20559;-54
2021/11/12 10:04:15;;;;;;;10.47;8.03;;;6.90;99.90;;;;;;5011695;28;20204;-53
2021/11/12 10:06:42;;;;;;;12.17;9.67;;;6.90;99.90;;;;;;5011510;28;20173;-54
2021/11/12 10:09:34;;;;;;;10.90;9.23;;;6.80;99.90;;;;;;5010385;28;20192;-59
2021/11/12 10:12:00;;;;;;;11.67;10.03;;;6.90;99.90;;;;;;5008143;28;20538;-58
2021/11/12 10:14:51;;;;;;;11.00;9.03;;;7.00;99.90;;;;;;5011472;28;20222;-58
2021/11/12 10:17:19;;;;;;;10.00;8.50;;;6.90;99.90;;;;;;5011323;28;20538;-57
2021/11/12 10:19:52;;;;;;;10.53;9.13;;;6.90;99.90;;;;;;5024173;23;20348;-56
2021/11/12 10:22:22;;;;;;;9.03;7.93;;;7.10;99.90;;;;;;5009727;28;20246;-53
2021/11/12 10:24:48;;;;;;;9.70;8.00;;;7.30;99.90;;;;;;5006585;28;20177;-52
2021/11/12 10:27:20;;;;;;;10.20;9.03;;;7.50;99.90;;;;;;5010432;28;20215;-55
2021/11/12 10:29:50;;;;;;;10.93;8.93;;;7.60;99.90;;;;;;5010541;28;20192;-55
2021/11/12 10:32:25;;;;;;;13.53;9.93;;;7.50;99.90;;;;;;5010792;28;20255;-52
2021/11/12 10:34:56;;;;;;;13.50;9.27;;;7.50;99.90;;;;;;5010192;28;20311;-53
2021/11/12 10:37:25;;;;;;;11.43;9.10;;;7.30;99.90;;;;;;5011441;28;20227;-52
2021/11/12 10:39:52;;;;;;;9.80;8.53;;;7.10;99.90;;;;;;5010297;28;20200;-50
2021/11/12 10:42:26;;;;;;;11.73;8.93;;;7.00;99.90;;;;;;5010622;28;20169;-51
2021/11/12 10:44:57;;;;;;;10.40;8.43;;;6.80;99.90;;;;;;5003301;28;20189;-54
2021/11/12 10:47:25;;;;;;;11.00;8.70;;;6.70;99.90;;;;;;4990552;28;20550;-51
2021/11/12 10:49:56;;;;;;;12.50;10.47;;;6.70;99.90;;;;;;4990590;28;20201;-50
2021/11/12 10:52:24;;;;;;;11.67;9.90;;;6.80;99.90;;;;;;4990427;28;20181;-55
2021/11/12 10:55:10;;;;;;;11.47;9.73;;;7.00;99.90;;;;;;5008366;28;20295;-54
2021/11/12 10:57:51;;;;;;;11.57;9.37;;;7.20;99.90;;;;;;5010366;28;20180;-50
2021/11/12 11:00:16;;;;;;;11.23;9.13;;;7.30;99.90;;;;;;5010002;28;20267;-48
2021/11/12 11:02:43;;;;;;;11.07;9.40;;;7.40;99.90;;;;;;5009386;28;20614;-53
2021/11/12 11:05:16;;;;;;;10.90;8.47;;;7.30;99.90;;;;;;5006222;28;20184;-50
2021/11/12 11:07:44;;;;;;;10.73;8.77;;;7.40;99.90;;;;;;5008325;28;20271;-52
2021/11/12 11:10:33;;;;;;;10.67;8.33;;;7.60;99.90;;;;;;5012400;28;20200;-53
2021/11/12 11:13:08;;;;;;;10.73;8.43;;;7.90;99.90;;;;;;5012243;28;20673;-56
2021/11/12 11:15:55;;;;;;;10.03;8.40;;;8.00;99.90;;;;;;5012308;28;20199;-51
2021/11/12 11:18:26;;;;;;;9.90;8.37;;;8.20;99.90;;;;;;5012167;28;20212;-50
2021/11/12 11:20:55;;;;;;;11.30;8.50;;;9.90;99.90;;;;;;5012573;28;20181;-51
2021/11/12 11:23:21;;;;;;;10.93;9.17;;;8.50;99.90;;;;;;5012944;28;20270;-55
2021/11/12 11:26:04;;;;;;;10.70;9.03;;;8.60;99.90;;;;;;5014401;28;20183;-50
2021/11/12 11:28:31;;;;;;;10.10;8.53;;;8.70;99.90;;;;;;5014712;28;20283;-51
2021/11/12 11:30:59;;;;;;;11.50;8.97;;;8.60;99.90;;;;;;5014537;28;20172;-52
2021/11/12 11:33:25;;;;;;;10.33;8.43;;;8.70;99.90;;;;;;5013999;28;20200;-55
2021/11/12 11:35:55;;;;;;;11.57;8.77;;;8.80;99.90;;;;;;5014542;28;20260;-51
2021/11/12 11:38:25;;;;;;;10.23;8.17;;;8.90;99.90;;;;;;5014135;28;20961;-47
2021/11/12 11:40:51;;;;;;;9.80;8.47;;;8.80;99.90;;;;;;5014285;28;20180;-50
2021/11/12 11:43:17;;;;;;;10.30;8.83;;;8.80;99.90;;;;;;5013596;28;20203;-56
2021/11/12 11:45:48;;;;;;;9.97;8.23;;;8.60;99.90;;;;;;5013590;28;20221;-53
2021/11/12 11:48:15;;;;;;;10.00;8.63;;;8.60;99.90;;;;;;5013770;28;20180;-55
2021/11/12 11:50:51;;;;;;;9.63;8.00;;;8.60;99.90;;;;;;5013636;28;20178;-51
2021/11/12 11:53:30;;;;;;;9.27;8.13;;;8.50;99.90;;;;;;5013503;28;20183;-53
2021/11/12 11:56:33;;;;;;;10.57;8.33;;;8.40;99.90;;;;;;5013845;28;20184;-55
2021/11/12 11:59:25;;;;;;;10.57;8.90;;;8.40;99.90;;;;;;5013465;28;20199;-56
2021/11/12 12:01:55;;;;;;;11.00;8.80;;;8.20;99.90;;;;;;5013632;28;20180;-52
2021/11/12 12:04:22;;;;;;;10.47;8.73;;;8.20;99.90;;;;;;5013685;28;20592;-55
2021/11/12 12:07:03;;;;;;;9.10;7.90;;;8.40;99.90;;;;;;5013178;28;20184;-56
2021/11/12 12:09:40;;;;;;;9.50;8.50;;;8.60;99.90;;;;;;5012318;28;20204;-53
2021/11/12 12:12:06;;;;;;;10.80;8.90;;;8.80;99.90;;;;;;4993138;28;20261;-55
2021/11/12 12:14:34;;;;;;;11.37;8.93;;;8.90;99.90;;;;;;4993785;28;20193;-52
2021/11/12 12:17:15;;;;;;;11.57;8.93;;;8.70;99.90;;;;;;4995674;28;20188;-55
2021/11/12 12:20:17;;;;;;;10.70;9.27;;;8.50;99.90;;;;;;4992161;28;20287;-55
2021/11/12 12:40:12;;;;;;;11.37;9.23;;;8.40;99.90;;;;;;5032953;28;20277;-51
2021/11/12 12:43:06;;;;;;;9.83;8.67;;;8.50;99.90;;;;;;5000090;28;20207;-53
2021/11/12 13:20:16;;;;;;;14.43;10.53;;;8.60;99.90;;;;;;4992592;28;20648;-50
2021/11/12 13:26:04;;;;;;;13.00;11.03;;;8.30;99.90;;;;;;4984248;28;20591;-52
2021/11/12 13:28:37;;;;;;;13.87;10.83;;;8.40;99.90;;;;;;5004648;28;20717;-50
2021/11/12 13:31:15;;;;;;;12.73;10.83;;;8.40;99.90;;;;;;5008597;28;20196;-52
2021/11/12 13:33:44;;;;;;;13.47;11.30;;;8.60;99.90;;;;;;5005504;28;20211;-51
2021/11/12 13:36:25;;;;;;;12.43;10.70;;;8.70;99.90;;;;;;5010210;28;20236;-50
2021/11/12 13:39:19;;;;;;;14.00;10.90;;;8.80;99.90;;;;;;5009732;28;20192;-50
2021/11/12 13:41:55;;;;;;;13.93;11.53;;;8.80;99.90;;;;;;5008983;28;20214;-56
2021/11/12 13:44:30;;;;;;;17.37;15.17;;;8.90;99.90;;;;;;5007293;28;20178;-56
2021/11/12 13:47:05;;;;;;;25.97;23.17;;;8.80;99.90;;;;;;5010812;28;20204;-53
2021/11/12 13:49:35;;;;;;;13.07;10.97;;;8.80;99.90;;;;;;5009335;28;20790;-52
2021/11/12 13:52:01;;;;;;;12.30;10.80;;;8.80;99.90;;;;;;5008074;28;20183;-54
2021/11/12 13:54:27;;;;;;;13.80;11.10;;;8.70;99.90;;;;;;5010408;28;20196;-52
2021/11/12 13:56:53;;;;;;;13.43;10.70;;;8.60;99.90;;;;;;5010561;28;20200;-50
2021/11/12 13:59:18;;;;;;;13.00;10.80;;;8.60;99.90;;;;;;5010987;28;20669;-49
2021/11/12 14:01:44;;;;;;;12.27;10.53;;;8.50;99.90;;;;;;5010370;28;20651;-56
2021/11/12 14:04:30;;;;;;;12.83;10.57;;;8.40;99.90;;;;;;5011330;28;20172;-51
2021/11/12 14:06:57;;;;;;;13.17;10.93;;;8.40;99.90;;;;;;5011513;28;20177;-56
2021/11/12 14:09:36;;;;;;;15.03;11.17;;;8.40;99.90;;;;;;5011522;28;20196;-50
2021/11/12 14:12:12;;;;;;;14.77;11.83;;;8.30;99.90;;;;;;5011023;28;20177;-55
2021/11/12 14:14:41;;;;;;;19.07;14.03;;;8.30;99.90;;;;;;5011537;28;20254;-50
2021/11/12 14:17:18;;;;;;;13.17;11.00;;;8.30;99.90;;;;;;5011321;28;20168;-52
2021/11/12 14:20:07;;;;;;;16.47;12.03;;;8.30;99.90;;;;;;5010219;28;20566;-52
2021/11/12 14:22:54;;;;;;;14.00;11.97;;;8.40;99.90;;;;;;5010725;28;20223;-54
2021/11/12 14:25:29;;;;;;;13.83;11.63;;;8.40;99.90;;;;;;5011277;28;20299;-55
2021/11/12 14:28:39;;;;;;;14.97;12.57;;;8.50;99.90;;;;;;5011035;28;20535;-50
2021/11/12 14:31:05;;;;;;;15.63;13.20;;;8.50;99.90;;;;;;5010907;28;20799;-54
2021/11/12 14:36:30;;;;;;;17.90;13.53;;;8.50;99.90;;;;;;5011169;28;20199;-51
2021/11/12 14:45:23;;;;;;;17.40;14.30;;;8.50;99.90;;;;;;5010603;28;20192;-53
2021/11/12 14:53:29;;;;;;;22.33;16.37;;;8.20;99.90;;;;;;5022147;28;20270;-52
2021/11/12 14:56:41;;;;;;;22.13;15.93;;;8.30;99.90;;;;;;5030366;28;20184;-55
2021/11/12 14:58:57;;;;;;;18.70;14.93;;;8.20;99.90;;;;;;5024897;28;20704;-55
2021/11/12 15:01:26;;;;;;;17.77;14.10;;;8.20;99.90;;;;;;5030457;28;20178;-52
2021/11/12 15:03:53;;;;;;;18.20;13.87;;;8.20;99.90;;;;;;5030334;28;20180;-53
2021/11/12 15:06:22;;;;;;;18.83;13.80;;;8.20;99.90;;;;;;5030161;28;20588;-53
2021/11/12 15:09:05;;;;;;;18.20;14.20;;;8.10;99.90;;;;;;5030473;28;20188;-56
2021/11/12 15:11:31;;;;;;;26.53;20.27;;;7.80;99.90;;;;;;5028719;28;20820;-55
2021/11/12 15:14:08;;;;;;;30.17;21.93;;;7.70;99.90;;;;;;5029526;28;20211;-52
2021/11/12 15:16:35;;;;;;;28.50;20.53;;;7.60;99.90;;;;;;5030557;28;20558;-54
2021/11/12 15:19:04;;;;;;;29.30;23.03;;;7.40;99.90;;;;;;5030153;28;20219;-53
2021/11/12 15:21:40;;;;;;;29.90;21.97;;;7.30;99.90;;;;;;5030219;28;20176;-56
2021/11/12 15:24:16;;;;;;;29.90;23.27;;;7.40;99.90;;;;;;5029851;28;20680;-53
2021/11/12 15:27:01;;;;;;;31.03;23.77;;;7.50;99.90;;;;;;5030134;28;20184;-52
2021/11/12 15:29:33;;;;;;;34.13;25.73;;;7.60;99.90;;;;;;5030047;28;20195;-51
2021/11/12 15:34:41;;;;;;;36.07;25.73;;;7.50;99.90;;;;;;5029785;28;20219;-50
2021/11/12 15:37:27;;;;;;;33.43;24.07;;;7.40;99.90;;;;;;5030068;28;20180;-53
2021/11/12 15:39:56;;;;;;;31.33;23.33;;;7.20;99.90;;;;;;5025461;28;20243;-54
2021/11/12 15:44:56;;;;;;;28.10;21.80;;;7.20;99.90;;;;;;5009636;28;20568;-56
2021/11/12 15:47:31;;;;;;;28.17;22.70;;;7.20;99.90;;;;;;5009966;28;20263;-49
2021/11/12 15:50:23;;;;;;;28.60;21.53;;;7.10;99.90;;;;;;5009310;28;20208;-50
2021/11/12 15:52:51;;;;;;;28.23;21.07;;;7.10;99.90;;;;;;5009325;28;20199;-50
2021/11/12 15:55:37;;;;;;;27.33;21.47;;;7.00;99.90;;;;;;5011481;28;20578;-52
2021/11/12 16:00:41;;;;;;;28.93;22.50;;;6.90;99.90;;;;;;5013600;28;20331;-52
2021/11/12 16:13:39;;;;;;;24.90;19.73;;;7.20;99.90;;;;;;5013005;28;20229;-53
2021/11/12 16:24:04;;;;;;;28.43;22.20;;;7.70;99.90;;;;;;5020045;23;20635;-58
2021/11/12 16:26:31;;;;;;;27.50;20.77;;;7.80;99.90;;;;;;4994418;28;20188;-59
2021/11/12 16:29:10;;;;;;;46.90;27.27;;;7.60;99.90;;;;;;4993770;28;20185;-57
2021/11/12 16:31:38;;;;;;;53.37;31.13;;;7.30;99.90;;;;;;4994107;28;20189;-58
2021/11/12 16:34:16;;;;;;;27.53;19.97;;;7.50;99.90;;;;;;4992605;28;20296;-55
2021/11/12 16:36:50;;;;;;;28.20;20.30;;;7.60;99.90;;;;;;5012378;28;20255;-56
2021/11/12 16:39:20;;;;;;;29.40;20.60;;;7.50;99.90;;;;;;5013199;28;20405;-57
2021/11/12 16:42:17;;;;;;;28.03;21.13;;;7.30;99.90;;;;;;4995462;28;20278;-60
2021/11/12 16:44:49;;;;;;;26.53;20.07;;;7.10;99.90;;;;;;4993156;28;20636;-59
2021/11/12 16:48:07;;;;;;;55.73;33.33;;;7.00;99.90;;;;;;4993143;28;20196;-55
2021/11/12 17:48:40;;;;;;;26.60;19.73;;;6.90;99.90;;;;;;5011709;28;20582;-59
2021/11/12 17:54:02;;;;;;;26.93;19.60;;;7.00;99.90;;;;;;5009477;28;20246;-57
2021/11/12 18:02:08;;;;;;;25.87;19.20;;;7.30;99.90;;;;;;5010562;28;20596;-59
2021/11/12 18:07:22;;;;;;;25.97;18.60;;;7.50;99.90;;;;;;5010898;28;20231;-55
2021/11/12 21:48:36;;;;;;;16.43;12.87;;;7.50;99.90;;;;;;4992581;28;20572;-59
2021/11/12 21:51:03;;;;;;;18.00;12.80;;;7.60;99.90;;;;;;5005400;28;20192;-58
2021/11/12 21:53:33;;;;;;;15.67;12.73;;;7.70;99.90;;;;;;5016755;28;20562;-59
2021/11/12 21:55:59;;;;;;;16.03;12.53;;;7.70;99.90;;;;;;5024562;28;20694;-55
2021/11/12 21:58:27;;;;;;;14.90;12.50;;;7.70;99.90;;;;;;5011673;28;20701;-61
2021/11/12 22:00:54;;;;;;;16.23;13.10;;;7.80;99.90;;;;;;5010099;28;20187;-56
2021/11/12 22:03:20;;;;;;;14.63;11.77;;;7.80;99.90;;;;;;5008024;28;20575;-62
2021/11/12 22:05:46;;;;;;;16.13;12.00;;;7.70;99.90;;;;;;5000783;28;20172;-59
2021/11/12 22:08:12;;;;;;;15.47;12.50;;;7.70;99.90;;;;;;5007015;28;20177;-57
2021/11/12 22:10:38;;;;;;;15.30;12.23;;;7.70;99.90;;;;;;5009724;28;20268;-59
2021/11/12 22:13:04;;;;;;;13.50;11.83;;;7.70;99.90;;;;;;4997344;28;20212;-58
2021/11/12 22:15:31;;;;;;;13.43;11.07;;;7.80;99.90;;;;;;5002475;28;20196;-58
2021/11/12 22:17:56;;;;;;;13.40;11.67;;;7.70;99.90;;;;;;4991450;28;20173;-54
2021/11/12 22:20:22;;;;;;;14.03;11.53;;;7.70;99.90;;;;;;4995595;28;20177;-54
2021/11/12 22:22:49;;;;;;;13.80;11.63;;;7.70;99.90;;;;;;5006737;28;20257;-60
2021/11/12 22:25:16;;;;;;;13.00;10.83;;;7.70;99.90;;;;;;5008603;28;20181;-54
2021/11/12 22:27:42;;;;;;;13.97;11.37;;;7.70;99.90;;;;;;4991999;28;20247;-60
2021/11/12 22:30:09;;;;;;;11.70;10.13;;;7.80;99.90;;;;;;5004821;28;20181;-50
2021/11/12 22:32:35;;;;;;;13.47;11.07;;;7.80;99.90;;;;;;5010811;28;20187;-54
2021/11/12 22:35:01;;;;;;;14.53;10.97;;;7.80;99.90;;;;;;5012774;23;20228;-59
2021/11/12 22:37:28;;;;;;;14.37;12.27;;;7.80;99.90;;;;;;5006360;28;20179;-55
2021/11/12 22:39:54;;;;;;;15.07;12.47;;;7.80;99.90;;;;;;5005624;28;20315;-57